Time;durP1;ratioP1;P1;durP2;ratioP2;P2;SDS_P1;SDS_P2;PMS_P1;PMS_P2;Temp;Humidity;BMP_temperature;BMP_pressure;BME280_temperature;BME280_humidity;BME280_pressure;Samples;Min_cycle;Max_cycle;Signal;HPM_P1;HPM_P2
2023/10/03 00:02:59;;;;;;;0.00;0.00;;;;;;;;;;6029268;29;20064;-87
2023/10/03 00:06:01;;;;;;;0.00;0.00;;;;;;;;;;6022501;29;20054;-86
2023/10/03 00:09:03;;;;;;;0.10;0.10;;;;;;;;;;6018783;29;20053;-87
2023/10/03 00:12:05;;;;;;;0.00;0.00;;;;;;;;;;6026448;29;20048;-87
2023/10/03 00:15:08;;;;;;;0.60;0.60;;;;;;;;;;6021981;29;20221;-87
2023/10/03 00:18:11;;;;;;;0.00;0.00;;;;;;;;;;6023647;29;20059;-87
2023/10/03 00:21:13;;;;;;;0.20;0.20;;;;;;;;;;6028390;29;20054;-87
2023/10/03 00:24:15;;;;;;;0.00;0.00;;;;;;;;;;6017310;29;20053;-87
2023/10/03 00:27:17;;;;;;;0.00;0.00;;;;;;;;;;6022009;29;20115;-87
2023/10/03 00:30:20;;;;;;;0.00;0.00;;;;;;;;;;6031658;29;20046;-86
2023/10/03 00:33:25;;;;;;;0.00;0.00;;;;;;;;;;6030385;29;20064;-87
2023/10/03 00:36:27;;;;;;;0.00;0.00;;;;;;;;;;6024595;29;20120;-86
2023/10/03 00:39:29;;;;;;;0.00;0.00;;;;;;;;;;6030937;29;20564;-87
2023/10/03 00:42:31;;;;;;;0.00;0.00;;;;;;;;;;6039469;29;20046;-87
2023/10/03 00:45:33;;;;;;;0.00;0.00;;;;;;;;;;6031863;29;20072;-86
2023/10/03 00:48:35;;;;;;;0.17;0.17;;;;;;;;;;6017194;29;20136;-87
2023/10/03 00:51:40;;;;;;;0.00;0.00;;;;;;;;;;6024210;29;20057;-87
2023/10/03 00:54:42;;;;;;;0.00;0.00;;;;;;;;;;6024398;29;20076;-87
2023/10/03 00:57:44;;;;;;;0.00;0.00;;;;;;;;;;6026456;29;20041;-87
2023/10/03 01:00:48;;;;;;;0.00;0.00;;;;;;;;;;6031733;29;20492;-87
2023/10/03 01:03:50;;;;;;;0.00;0.00;;;;;;;;;;6025045;29;20744;-87
2023/10/03 01:06:52;;;;;;;0.20;0.20;;;;;;;;;;6024006;29;20041;-87
2023/10/03 01:09:54;;;;;;;0.00;0.00;;;;;;;;;;6038896;29;20053;-87
2023/10/03 01:12:59;;;;;;;0.00;0.00;;;;;;;;;;6025826;29;20120;-86
2023/10/03 01:16:03;;;;;;;0.00;0.00;;;;;;;;;;6018914;29;20049;-87
2023/10/03 01:19:20;;;;;;;0.00;0.00;;;;;;;;;;6029700;29;20398;-87
2023/10/03 01:22:26;;;;;;;0.00;0.00;;;;;;;;;;6021010;29;20105;-87
2023/10/03 01:25:28;;;;;;;0.10;0.10;;;;;;;;;;6028206;29;20042;-86
2023/10/03 01:28:30;;;;;;;0.00;0.00;;;;;;;;;;6021009;29;20501;-87
2023/10/03 01:31:31;;;;;;;0.00;0.00;;;;;;;;;;6019417;29;20045;-86
2023/10/03 01:34:34;;;;;;;0.00;0.00;;;;;;;;;;6022086;29;20097;-87
2023/10/03 01:37:38;;;;;;;0.25;0.25;;;;;;;;;;6016432;29;20100;-86
2023/10/03 01:40:40;;;;;;;0.10;0.10;;;;;;;;;;6027151;29;20066;-87
2023/10/03 01:43:43;;;;;;;0.00;0.00;;;;;;;;;;6026673;29;20042;-87
2023/10/03 01:46:45;;;;;;;0.00;0.00;;;;;;;;;;6025451;29;20104;-87
2023/10/03 01:49:50;;;;;;;0.00;0.00;;;;;;;;;;6022416;29;20058;-87
2023/10/03 01:52:52;;;;;;;0.15;0.15;;;;;;;;;;6027065;29;20049;-87
2023/10/03 01:55:56;;;;;;;0.52;0.30;;;;;;;;;;6047170;29;20053;-87
2023/10/03 01:58:59;;;;;;;0.00;0.00;;;;;;;;;;6026685;29;20054;-87
2023/10/03 02:02:03;;;;;;;0.00;0.00;;;;;;;;;;6021642;29;20554;-87
2023/10/03 02:05:07;;;;;;;0.10;0.10;;;;;;;;;;6032578;29;20065;-87
2023/10/03 02:08:19;;;;;;;0.08;0.08;;;;;;;;;;6021055;29;20044;-87
2023/10/03 02:11:26;;;;;;;0.10;0.10;;;;;;;;;;6027064;29;20049;-87
2023/10/03 02:14:30;;;;;;;0.10;0.10;;;;;;;;;;6027600;29;20037;-87
2023/10/03 02:17:34;;;;;;;0.00;0.00;;;;;;;;;;6023626;29;20488;-87
2023/10/03 02:20:38;;;;;;;0.00;0.00;;;;;;;;;;6022870;29;20509;-87
2023/10/03 02:23:40;;;;;;;0.00;0.00;;;;;;;;;;6020298;29;20061;-87
2023/10/03 02:26:42;;;;;;;0.00;0.00;;;;;;;;;;6021782;29;20101;-87
2023/10/03 02:29:44;;;;;;;0.00;0.00;;;;;;;;;;6033734;29;20138;-87
2023/10/03 02:32:47;;;;;;;0.00;0.00;;;;;;;;;;6030639;29;20041;-87
2023/10/03 02:35:50;;;;;;;0.10;0.10;;;;;;;;;;6026995;29;20105;-87
2023/10/03 02:38:54;;;;;;;0.00;0.00;;;;;;;;;;6024932;29;20064;-87
2023/10/03 02:41:57;;;;;;;0.00;0.00;;;;;;;;;;6024768;29;20444;-87
2023/10/03 02:44:59;;;;;;;0.00;0.00;;;;;;;;;;6019279;29;20416;-87
2023/10/03 02:48:09;;;;;;;0.00;0.00;;;;;;;;;;6039813;29;20052;-87
2023/10/03 02:51:14;;;;;;;0.05;0.05;;;;;;;;;;6015185;29;20082;-87
2023/10/03 02:54:16;;;;;;;0.00;0.00;;;;;;;;;;6028467;29;20053;-87
2023/10/03 02:57:18;;;;;;;0.30;0.30;;;;;;;;;;6019602;29;20081;-87
2023/10/03 03:00:21;;;;;;;0.00;0.00;;;;;;;;;;6019311;29;20046;-86
2023/10/03 03:03:25;;;;;;;0.10;0.10;;;;;;;;;;6019751;29;20045;-87
2023/10/03 03:06:31;;;;;;;0.10;0.10;;;;;;;;;;6017801;29;20404;-87
2023/10/03 03:09:35;;;;;;;0.00;0.00;;;;;;;;;;6021496;29;20072;-87
2023/10/03 03:12:38;;;;;;;0.20;0.20;;;;;;;;;;6037163;29;20580;-87
2023/10/03 03:15:51;;;;;;;0.00;0.00;;;;;;;;;;6022236;29;20059;-87
2023/10/03 03:18:54;;;;;;;0.45;0.45;;;;;;;;;;6018410;29;20170;-87
2023/10/03 03:21:57;;;;;;;0.00;0.00;;;;;;;;;;6021740;29;20409;-87
2023/10/03 03:24:58;;;;;;;0.00;0.00;;;;;;;;;;6021732;29;20548;-87
2023/10/03 03:28:00;;;;;;;0.00;0.00;;;;;;;;;;6025097;29;20052;-87
2023/10/03 03:31:02;;;;;;;0.00;0.00;;;;;;;;;;6026581;29;20046;-87
2023/10/03 03:34:03;;;;;;;0.10;0.10;;;;;;;;;;6021453;29;20500;-87
2023/10/03 03:37:21;;;;;;;0.00;0.00;;;;;;;;;;6012107;29;20132;-86
2023/10/03 03:40:31;;;;;;;0.13;0.13;;;;;;;;;;6009155;29;20046;-87
2023/10/03 03:43:33;;;;;;;0.30;0.30;;;;;;;;;;6028595;29;20045;-87
2023/10/03 03:46:35;;;;;;;0.20;0.20;;;;;;;;;;6021155;29;20508;-87
2023/10/03 03:49:36;;;;;;;0.00;0.00;;;;;;;;;;6022913;29;20140;-87
2023/10/03 03:52:40;;;;;;;0.00;0.00;;;;;;;;;;6024611;29;20519;-87
2023/10/03 03:55:42;;;;;;;0.57;0.40;;;;;;;;;;6020061;29;20069;-87
2023/10/03 03:58:48;;;;;;;0.00;0.00;;;;;;;;;;6023484;29;20045;-87
2023/10/03 04:01:50;;;;;;;0.55;0.32;;;;;;;;;;6019714;29;20831;-87
2023/10/03 04:04:52;;;;;;;0.00;0.00;;;;;;;;;;6025802;29;20080;-87
2023/10/03 04:07:54;;;;;;;0.00;0.00;;;;;;;;;;6019107;29;20050;-87
2023/10/03 04:10:56;;;;;;;0.08;0.08;;;;;;;;;;6039512;29;20086;-87
2023/10/03 04:13:59;;;;;;;0.00;0.00;;;;;;;;;;6025137;29;20045;-87
2023/10/03 04:17:01;;;;;;;0.08;0.08;;;;;;;;;;6025406;29;20053;-87
2023/10/03 04:20:30;;;;;;;0.00;0.00;;;;;;;;;;6023866;29;20037;-87
2023/10/03 04:23:27;;;;;;;0.52;0.25;;;;;;;;;;6025694;29;20140;-87
2023/10/03 04:26:32;;;;;;;0.00;0.00;;;;;;;;;;6020150;29;20054;-87
2023/10/03 04:29:34;;;;;;;0.03;0.03;;;;;;;;;;6025666;29;20053;-87
2023/10/03 04:32:37;;;;;;;0.00;0.00;;;;;;;;;;6023834;29;20156;-87
2023/10/03 04:35:40;;;;;;;0.50;0.50;;;;;;;;;;6021167;29;20186;-87
2023/10/03 04:38:42;;;;;;;0.00;0.00;;;;;;;;;;6024570;29;20053;-86
2023/10/03 04:41:45;;;;;;;0.20;0.20;;;;;;;;;;6026514;29;20098;-87
2023/10/03 04:44:47;;;;;;;0.00;0.00;;;;;;;;;;6028484;29;20121;-87
2023/10/03 04:47:49;;;;;;;0.00;0.00;;;;;;;;;;6024905;29;20167;-87
2023/10/03 04:50:51;;;;;;;0.00;0.00;;;;;;;;;;6033191;29;20460;-87
2023/10/03 04:53:53;;;;;;;0.00;0.00;;;;;;;;;;6023475;29;20045;-87
2023/10/03 04:56:58;;;;;;;0.00;0.00;;;;;;;;;;6026379;29;20116;-87
2023/10/03 05:00:00;;;;;;;0.00;0.00;;;;;;;;;;6023691;29;20057;-87
2023/10/03 05:03:04;;;;;;;0.08;0.08;;;;;;;;;;6027964;29;20053;-87
2023/10/03 05:06:06;;;;;;;0.30;0.30;;;;;;;;;;6023513;29;20162;-87
2023/10/03 05:09:08;;;;;;;0.00;0.00;;;;;;;;;;6023388;29;20514;-87
2023/10/03 05:12:10;;;;;;;0.00;0.00;;;;;;;;;;6027831;29;20275;-87
2023/10/03 05:15:14;;;;;;;0.10;0.10;;;;;;;;;;6025385;29;20045;-87
2023/10/03 05:18:16;;;;;;;0.00;0.00;;;;;;;;;;6025865;29;20079;-87
2023/10/03 05:21:19;;;;;;;0.00;0.00;;;;;;;;;;6019797;29;20477;-87
2023/10/03 05:24:21;;;;;;;0.00;0.00;;;;;;;;;;6028002;29;20397;-87
2023/10/03 05:27:23;;;;;;;0.00;0.00;;;;;;;;;;6027648;29;20493;-87
2023/10/03 05:30:25;;;;;;;0.00;0.00;;;;;;;;;;6024237;29;20093;-87
2023/10/03 05:33:27;;;;;;;0.00;0.00;;;;;;;;;;6028008;29;20049;-87
2023/10/03 05:36:29;;;;;;;0.00;0.00;;;;;;;;;;6024275;29;20045;-87
2023/10/03 05:39:31;;;;;;;0.00;0.00;;;;;;;;;;6022885;29;20045;-87
2023/10/03 05:42:33;;;;;;;0.00;0.00;;;;;;;;;;6030331;29;20053;-87
2023/10/03 05:45:36;;;;;;;0.47;0.47;;;;;;;;;;6023246;29;20077;-87
2023/10/03 05:48:38;;;;;;;0.00;0.00;;;;;;;;;;6024758;29;20045;-87
2023/10/03 05:51:40;;;;;;;0.00;0.00;;;;;;;;;;6018785;29;20080;-87
2023/10/03 05:54:42;;;;;;;0.00;0.00;;;;;;;;;;6021151;29;20469;-87
2023/10/03 05:57:43;;;;;;;0.00;0.00;;;;;;;;;;6023333;29;20388;-87
2023/10/03 06:00:45;;;;;;;0.03;0.03;;;;;;;;;;6020871;29;20227;-87
2023/10/03 06:03:47;;;;;;;0.00;0.00;;;;;;;;;;6026843;29;20658;-87
2023/10/03 06:06:49;;;;;;;0.00;0.00;;;;;;;;;;6020239;29;20465;-87
2023/10/03 06:09:53;;;;;;;0.00;0.00;;;;;;;;;;6028104;29;20058;-87
2023/10/03 06:12:55;;;;;;;0.00;0.00;;;;;;;;;;6028122;29;20049;-87
2023/10/03 06:16:05;;;;;;;0.00;0.00;;;;;;;;;;6022011;29;20082;-87
2023/10/03 06:19:08;;;;;;;0.00;0.00;;;;;;;;;;6019700;29;20703;-86
2023/10/03 06:22:12;;;;;;;0.03;0.03;;;;;;;;;;6027755;29;20045;-87
2023/10/03 06:25:14;;;;;;;0.10;0.10;;;;;;;;;;6031834;29;20038;-87
2023/10/03 06:28:16;;;;;;;0.00;0.00;;;;;;;;;;6040605;29;20042;-87
2023/10/03 06:31:18;;;;;;;0.52;0.52;;;;;;;;;;6027414;29;20156;-87
2023/10/03 06:34:20;;;;;;;0.00;0.00;;;;;;;;;;6020806;29;20048;-87
2023/10/03 06:37:23;;;;;;;0.00;0.00;;;;;;;;;;6028418;29;20076;-87
2023/10/03 06:40:25;;;;;;;0.00;0.00;;;;;;;;;;6020034;29;20130;-87
2023/10/03 06:43:27;;;;;;;0.00;0.00;;;;;;;;;;6025941;29;20045;-87
2023/10/03 06:46:29;;;;;;;0.08;0.08;;;;;;;;;;6028244;29;20621;-87
2023/10/03 06:49:31;;;;;;;0.00;0.00;;;;;;;;;;6022248;29;20053;-87
2023/10/03 06:52:34;;;;;;;0.00;0.00;;;;;;;;;;6025915;29;20082;-87
2023/10/03 06:55:36;;;;;;;0.00;0.00;;;;;;;;;;6018261;29;20492;-87
2023/10/03 06:58:38;;;;;;;0.10;0.10;;;;;;;;;;6016986;29;20042;-87
2023/10/03 07:01:40;;;;;;;0.00;0.00;;;;;;;;;;6017625;29;20193;-87
2023/10/03 07:04:41;;;;;;;0.00;0.00;;;;;;;;;;6022810;29;20596;-87
2023/10/03 07:07:43;;;;;;;0.00;0.00;;;;;;;;;;6017743;29;20108;-87
2023/10/03 07:10:45;;;;;;;0.25;0.25;;;;;;;;;;6019630;29;20150;-87
2023/10/03 07:13:49;;;;;;;0.00;0.00;;;;;;;;;;6022157;29;20060;-87
2023/10/03 07:16:51;;;;;;;0.00;0.00;;;;;;;;;;6017706;29;20148;-87
2023/10/03 07:19:53;;;;;;;0.00;0.00;;;;;;;;;;6015150;29;20057;-87
2023/10/03 07:22:54;;;;;;;0.00;0.00;;;;;;;;;;6020674;29;20413;-87
2023/10/03 07:25:56;;;;;;;0.00;0.00;;;;;;;;;;6019457;29;20046;-87
2023/10/03 07:29:00;;;;;;;0.75;0.52;;;;;;;;;;6025585;29;20049;-87
2023/10/03 07:32:03;;;;;;;0.00;0.00;;;;;;;;;;6025082;29;20053;-87
2023/10/03 07:35:10;;;;;;;0.32;0.32;;;;;;;;;;6016828;29;20241;-87
2023/10/03 07:38:12;;;;;;;0.10;0.10;;;;;;;;;;6027442;29;20056;-87
2023/10/03 07:41:18;;;;;;;0.10;0.10;;;;;;;;;;6013736;29;20488;-87
2023/10/03 07:44:22;;;;;;;0.17;0.17;;;;;;;;;;6022550;29;20109;-87
2023/10/03 07:47:23;;;;;;;0.00;0.00;;;;;;;;;;6018513;29;20041;-87
2023/10/03 07:50:25;;;;;;;0.00;0.00;;;;;;;;;;6021714;29;20050;-87
2023/10/03 07:53:29;;;;;;;0.00;0.00;;;;;;;;;;6026039;29;20114;-87
2023/10/03 07:56:32;;;;;;;0.08;0.08;;;;;;;;;;6016067;29;20639;-87
2023/10/03 07:59:35;;;;;;;0.00;0.00;;;;;;;;;;6035654;29;20147;-87
2023/10/03 08:02:43;;;;;;;0.00;0.00;;;;;;;;;;6019436;29;20226;-87
2023/10/03 08:05:46;;;;;;;0.00;0.00;;;;;;;;;;6017514;29;20052;-87
2023/10/03 08:08:48;;;;;;;0.00;0.00;;;;;;;;;;6022691;29;20049;-87
2023/10/03 08:11:52;;;;;;;0.00;0.00;;;;;;;;;;6027316;29;20131;-87
2023/10/03 08:14:54;;;;;;;0.63;0.63;;;;;;;;;;6022147;29;20488;-87
2023/10/03 08:17:57;;;;;;;0.20;0.10;;;;;;;;;;6026136;29;20465;-87
2023/10/03 08:21:03;;;;;;;0.00;0.00;;;;;;;;;;6018011;29;20056;-87
2023/10/03 08:24:09;;;;;;;0.00;0.00;;;;;;;;;;6023791;29;20120;-87
2023/10/03 08:27:30;;;;;;;0.03;0.03;;;;;;;;;;6026879;29;20053;-87
2023/10/03 08:30:34;;;;;;;0.00;0.00;;;;;;;;;;6016876;29;20045;-87
2023/10/03 08:33:36;;;;;;;0.03;0.03;;;;;;;;;;6030785;29;20444;-87
2023/10/03 08:36:38;;;;;;;0.00;0.00;;;;;;;;;;6027339;29;20045;-87
2023/10/03 08:39:40;;;;;;;0.10;0.10;;;;;;;;;;6018140;29;20145;-87
2023/10/03 08:42:44;;;;;;;0.10;0.10;;;;;;;;;;6018054;29;20110;-87
2023/10/03 08:45:52;;;;;;;0.15;0.15;;;;;;;;;;6023142;29;20248;-88
2023/10/03 08:49:00;;;;;;;0.30;0.10;;;;;;;;;;6028908;29;20053;-87
2023/10/03 08:52:03;;;;;;;0.00;0.00;;;;;;;;;;6030012;29;20512;-87
2023/10/03 08:55:08;;;;;;;0.00;0.00;;;;;;;;;;6027664;29;20041;-87
2023/10/03 08:58:13;;;;;;;0.08;0.08;;;;;;;;;;6029663;29;20037;-88
2023/10/03 09:01:17;;;;;;;0.10;0.10;;;;;;;;;;6021102;29;20468;-87
2023/10/03 09:04:19;;;;;;;0.30;0.30;;;;;;;;;;6022033;29;20048;-87
2023/10/03 09:07:23;;;;;;;0.52;0.52;;;;;;;;;;6028507;29;20608;-87
2023/10/03 09:10:26;;;;;;;0.00;0.00;;;;;;;;;;6031196;29;20046;-88
2023/10/03 09:13:28;;;;;;;0.00;0.00;;;;;;;;;;6029175;29;20041;-87
2023/10/03 09:16:30;;;;;;;0.00;0.00;;;;;;;;;;6013994;29;20060;-88
2023/10/03 09:19:45;;;;;;;0.00;0.00;;;;;;;;;;6025750;29;20041;-87
2023/10/03 09:22:47;;;;;;;0.10;0.10;;;;;;;;;;6020144;29;20046;-88
2023/10/03 09:25:55;;;;;;;0.00;0.00;;;;;;;;;;6016984;29;20042;-87
2023/10/03 09:28:58;;;;;;;0.00;0.00;;;;;;;;;;6029293;29;20417;-88
2023/10/03 09:32:07;;;;;;;0.03;0.03;;;;;;;;;;6024102;29;20045;-87
2023/10/03 09:35:09;;;;;;;0.00;0.00;;;;;;;;;;6023480;29;20128;-88
2023/10/03 09:38:17;;;;;;;0.30;0.30;;;;;;;;;;6018104;29;20615;-86
2023/10/03 09:41:21;;;;;;;0.10;0.10;;;;;;;;;;6026268;29;20479;-88
2023/10/03 09:44:29;;;;;;;0.10;0.10;;;;;;;;;;6028167;29;20045;-87
2023/10/03 09:47:32;;;;;;;0.40;0.40;;;;;;;;;;6027066;29;20087;-87
2023/10/03 09:50:39;;;;;;;0.10;0.10;;;;;;;;;;6028777;29;20500;-87
2023/10/03 09:53:41;;;;;;;0.20;0.20;;;;;;;;;;6017660;29;20389;-87
2023/10/03 09:56:44;;;;;;;0.30;0.30;;;;;;;;;;6025392;29;20538;-87
2023/10/03 09:59:46;;;;;;;0.25;0.25;;;;;;;;;;6018991;29;20077;-87
2023/10/03 10:02:48;;;;;;;0.52;0.52;;;;;;;;;;6028561;29;20037;-88
2023/10/03 10:05:59;;;;;;;0.13;0.13;;;;;;;;;;6023718;29;20128;-87
2023/10/03 10:09:04;;;;;;;0.08;0.08;;;;;;;;;;6025477;29;20237;-87
2023/10/03 10:12:06;;;;;;;0.10;0.10;;;;;;;;;;6023651;29;20041;-88
2023/10/03 10:18:13;;;;;;;0.00;0.00;;;;;;;;;;6021289;29;20060;-88
2023/10/03 10:21:39;;;;;;;0.05;0.00;;;;;;;;;;6028957;29;20049;-88
2023/10/03 10:24:41;;;;;;;0.00;0.00;;;;;;;;;;6021414;29;20076;-87
2023/10/03 10:27:44;;;;;;;0.10;0.10;;;;;;;;;;6026249;29;20124;-88
2023/10/03 10:31:09;;;;;;;0.00;0.00;;;;;;;;;;6022557;29;20106;-88
2023/10/03 10:34:22;;;;;;;0.00;0.00;;;;;;;;;;6001451;29;20164;-88
2023/10/03 10:37:24;;;;;;;0.35;0.15;;;;;;;;;;6002035;29;20485;-87
2023/10/03 10:40:29;;;;;;;0.05;0.05;;;;;;;;;;6002327;29;20062;-87
2023/10/03 10:43:50;;;;;;;0.00;0.00;;;;;;;;;;6002971;29;20057;-87
2023/10/03 10:47:04;;;;;;;0.00;0.00;;;;;;;;;;6000453;29;20101;-88
2023/10/03 10:50:06;;;;;;;0.00;0.00;;;;;;;;;;6000086;29;20136;-88
2023/10/03 10:53:14;;;;;;;0.00;0.00;;;;;;;;;;5985497;29;20046;-88
2023/10/03 10:56:16;;;;;;;0.00;0.00;;;;;;;;;;5999253;29;20810;-88
2023/10/03 10:59:18;;;;;;;0.00;0.00;;;;;;;;;;6005029;29;20065;-88
2023/10/03 11:02:20;;;;;;;0.00;0.00;;;;;;;;;;5999448;29;20049;-88
2023/10/03 11:05:24;;;;;;;0.00;0.00;;;;;;;;;;6004685;29;20125;-88
2023/10/03 11:08:25;;;;;;;0.00;0.00;;;;;;;;;;6002757;29;20056;-88
2023/10/03 11:11:35;;;;;;;0.20;0.20;;;;;;;;;;6018755;29;20048;-88
2023/10/03 11:14:38;;;;;;;0.00;0.00;;;;;;;;;;6025792;29;20045;-88
2023/10/03 11:17:39;;;;;;;0.30;0.30;;;;;;;;;;6035717;29;20125;-88
2023/10/03 11:20:41;;;;;;;0.00;0.00;;;;;;;;;;6032416;29;20049;-88
2023/10/03 11:24:03;;;;;;;0.00;0.00;;;;;;;;;;6024329;29;20496;-88
2023/10/03 11:27:05;;;;;;;0.00;0.00;;;;;;;;;;6020078;29;20186;-88
2023/10/03 11:30:21;;;;;;;0.00;0.00;;;;;;;;;;6029357;29;20070;-88
2023/10/03 11:33:23;;;;;;;0.00;0.00;;;;;;;;;;6022545;29;20050;-87
2023/10/03 11:36:26;;;;;;;0.10;0.10;;;;;;;;;;6024717;29;20097;-88
2023/10/03 11:39:28;;;;;;;0.00;0.00;;;;;;;;;;6025053;29;20050;-88
2023/10/03 11:42:32;;;;;;;0.00;0.00;;;;;;;;;;6029381;29;20420;-89
2023/10/03 11:45:34;;;;;;;0.05;0.05;;;;;;;;;;6029234;29;20060;-87
2023/10/03 11:48:36;;;;;;;0.00;0.00;;;;;;;;;;6023681;29;20508;-87
2023/10/03 11:51:38;;;;;;;0.00;0.00;;;;;;;;;;6016745;29;20045;-89
2023/10/03 11:54:40;;;;;;;0.00;0.00;;;;;;;;;;6029278;29;20074;-88
2023/10/03 11:57:42;;;;;;;0.00;0.00;;;;;;;;;;6028829;29;20133;-87
2023/10/03 12:00:44;;;;;;;0.10;0.10;;;;;;;;;;6028032;29;20504;-88
2023/10/03 12:03:46;;;;;;;0.00;0.00;;;;;;;;;;6028695;29;20411;-87
2023/10/03 12:06:49;;;;;;;0.05;0.05;;;;;;;;;;6025557;29;20048;-88
2023/10/03 12:09:50;;;;;;;0.10;0.10;;;;;;;;;;6020213;29;20041;-87
2023/10/03 12:12:52;;;;;;;0.00;0.00;;;;;;;;;;6026556;29;20097;-87
2023/10/03 12:15:54;;;;;;;0.00;0.00;;;;;;;;;;6028097;29;20042;-88
2023/10/03 12:18:57;;;;;;;0.00;0.00;;;;;;;;;;6025564;29;20054;-88
2023/10/03 12:21:59;;;;;;;0.00;0.00;;;;;;;;;;6022756;29;20045;-87
2023/10/03 12:25:01;;;;;;;0.00;0.00;;;;;;;;;;6041461;29;20492;-87
2023/10/03 12:28:03;;;;;;;0.00;0.00;;;;;;;;;;6029560;29;20045;-87
2023/10/03 12:31:05;;;;;;;0.00;0.00;;;;;;;;;;6018472;29;20041;-88
2023/10/03 12:34:06;;;;;;;0.13;0.13;;;;;;;;;;6022852;29;20137;-88
2023/10/03 12:37:11;;;;;;;0.00;0.00;;;;;;;;;;6028757;29;20038;-88
2023/10/03 12:40:17;;;;;;;0.00;0.00;;;;;;;;;;6022715;29;20050;-88
2023/10/03 12:43:18;;;;;;;0.00;0.00;;;;;;;;;;6019336;29;20049;-89
2023/10/03 12:46:20;;;;;;;1.23;1.10;;;;;;;;;;6020657;29;20081;-87
2023/10/03 12:49:23;;;;;;;0.00;0.00;;;;;;;;;;6031948;29;20052;-91
2023/10/03 12:52:25;;;;;;;0.00;0.00;;;;;;;;;;6028920;29;20064;-91
2023/10/03 12:55:28;;;;;;;0.00;0.00;;;;;;;;;;6033369;29;20074;-90
2023/10/03 12:58:31;;;;;;;0.20;0.20;;;;;;;;;;6028598;29;20174;-91
2023/10/03 13:01:33;;;;;;;0.00;0.00;;;;;;;;;;6024411;29;20580;-93
2023/10/03 13:04:35;;;;;;;0.10;0.10;;;;;;;;;;6022076;29;20424;-93
2023/10/03 13:07:37;;;;;;;0.00;0.00;;;;;;;;;;6019907;29;20132;-93
2023/10/03 13:10:41;;;;;;;0.00;0.00;;;;;;;;;;6021108;29;20049;-93
2023/10/03 13:13:47;;;;;;;0.00;0.00;;;;;;;;;;6027181;29;20069;-95
2023/10/03 13:16:48;;;;;;;0.00;0.00;;;;;;;;;;6017729;29;20041;-95
2023/10/03 13:19:51;;;;;;;0.00;0.00;;;;;;;;;;6029825;29;20115;-96
2023/10/03 13:22:55;;;;;;;0.00;0.00;;;;;;;;;;6018665;29;21167;-95
2023/10/03 13:25:59;;;;;;;0.00;0.00;;;;;;;;;;6018171;29;20460;-96
2023/10/03 13:29:01;;;;;;;0.00;0.00;;;;;;;;;;6022837;29;20153;-95
2023/10/03 13:32:04;;;;;;;0.00;0.00;;;;;;;;;;6032320;29;20045;-94
2023/10/03 13:35:07;;;;;;;0.00;0.00;;;;;;;;;;6030102;29;20053;-91
2023/10/03 13:38:09;;;;;;;0.00;0.00;;;;;;;;;;6045907;29;20049;-92
2023/10/03 13:41:10;;;;;;;0.00;0.00;;;;;;;;;;6033241;29;20524;-93
2023/10/03 13:44:15;;;;;;;0.00;0.00;;;;;;;;;;6032791;29;20049;-94
2023/10/03 13:47:17;;;;;;;0.00;0.00;;;;;;;;;;6038072;29;20053;-95
2023/10/03 13:50:18;;;;;;;0.00;0.00;;;;;;;;;;6034719;29;20049;-96
2023/10/03 13:53:20;;;;;;;0.00;0.00;;;;;;;;;;6037449;29;20041;-95
2023/10/03 13:56:22;;;;;;;0.00;0.00;;;;;;;;;;6030255;29;20042;-95
2023/10/03 13:59:27;;;;;;;0.00;0.00;;;;;;;;;;6020711;29;20049;-95
2023/10/03 14:02:28;;;;;;;0.00;0.00;;;;;;;;;;6046634;29;20092;-96
2023/10/03 14:05:31;;;;;;;0.00;0.00;;;;;;;;;;6035141;29;20049;-96
2023/10/03 14:08:33;;;;;;;0.00;0.00;;;;;;;;;;6061091;29;20061;-96
2023/10/03 14:11:36;;;;;;;0.00;0.00;;;;;;;;;;6031002;29;20098;-96
2023/10/03 14:14:38;;;;;;;0.00;0.00;;;;;;;;;;6038344;29;20076;-96
2023/10/03 14:17:40;;;;;;;0.00;0.00;;;;;;;;;;6045910;29;20080;-96
2023/10/03 14:20:42;;;;;;;0.00;0.00;;;;;;;;;;6021097;29;20174;-94
2023/10/03 14:23:44;;;;;;;0.00;0.00;;;;;;;;;;6026281;29;20112;-96
2023/10/03 14:26:47;;;;;;;0.00;0.00;;;;;;;;;;6042918;29;20042;-95
2023/10/03 14:29:48;;;;;;;0.10;0.10;;;;;;;;;;6052335;29;20089;-96
2023/10/03 14:32:51;;;;;;;0.00;0.00;;;;;;;;;;6058867;29;20049;-96
2023/10/03 14:35:53;;;;;;;0.00;0.00;;;;;;;;;;6048586;29;20420;-96
2023/10/03 14:38:55;;;;;;;0.00;0.00;;;;;;;;;;6034781;29;20137;-93
2023/10/03 14:41:57;;;;;;;0.00;0.00;;;;;;;;;;6031146;29;20076;-91
2023/10/03 14:45:00;;;;;;;0.00;0.00;;;;;;;;;;6029787;29;20045;-92
2023/10/03 14:48:01;;;;;;;0.00;0.00;;;;;;;;;;6032073;29;20069;-91
2023/10/03 14:51:03;;;;;;;0.00;0.00;;;;;;;;;;6020068;29;20038;-92
2023/10/03 14:54:05;;;;;;;0.00;0.00;;;;;;;;;;6026539;29;20061;-92
2023/10/03 14:57:07;;;;;;;0.00;0.00;;;;;;;;;;6025467;29;20056;-92
2023/10/03 15:00:09;;;;;;;0.00;0.00;;;;;;;;;;6033344;29;20349;-92
2023/10/03 15:03:11;;;;;;;0.00;0.00;;;;;;;;;;6026102;29;20045;-93
2023/10/03 15:06:13;;;;;;;0.00;0.00;;;;;;;;;;6029768;29;20045;-95
2023/10/03 15:09:15;;;;;;;0.00;0.00;;;;;;;;;;6025733;29;20136;-90
2023/10/03 15:12:17;;;;;;;0.00;0.00;;;;;;;;;;6044080;29;20075;-94
2023/10/03 15:15:19;;;;;;;0.00;0.00;;;;;;;;;;6024865;29;20057;-96
2023/10/03 15:18:24;;;;;;;0.00;0.00;;;;;;;;;;6029582;29;20049;-93
2023/10/03 15:21:26;;;;;;;0.00;0.00;;;;;;;;;;6028612;29;20078;-94
2023/10/03 15:24:30;;;;;;;0.00;0.00;;;;;;;;;;6031510;29;20097;-96
2023/10/03 15:27:32;;;;;;;0.00;0.00;;;;;;;;;;6029619;29;20053;-96
2023/10/03 15:30:41;;;;;;;0.10;0.10;;;;;;;;;;6028113;29;20081;-92
2023/10/03 15:33:43;;;;;;;0.00;0.00;;;;;;;;;;6032524;29;20059;-90
2023/10/03 15:36:47;;;;;;;0.00;0.00;;;;;;;;;;6020273;29;20445;-92
2023/10/03 15:39:51;;;;;;;0.00;0.00;;;;;;;;;;6010469;29;20080;-94
2023/10/03 15:42:53;;;;;;;0.28;0.28;;;;;;;;;;6025650;29;20057;-95
2023/10/03 15:46:00;;;;;;;0.00;0.00;;;;;;;;;;6031182;29;20128;-93
2023/10/03 15:49:02;;;;;;;0.15;0.15;;;;;;;;;;6030211;29;20132;-93
2023/10/03 15:52:04;;;;;;;0.00;0.00;;;;;;;;;;6027435;29;20041;-95
2023/10/03 15:55:06;;;;;;;0.00;0.00;;;;;;;;;;6022297;29;20041;-92
2023/10/03 15:58:08;;;;;;;0.00;0.00;;;;;;;;;;6023322;29;20054;-94
2023/10/03 16:01:16;;;;;;;0.13;0.13;;;;;;;;;;6020740;29;20411;-96
2023/10/03 16:04:18;;;;;;;0.00;0.00;;;;;;;;;;6032028;29;20049;-95
2023/10/03 16:07:20;;;;;;;0.00;0.00;;;;;;;;;;6031849;29;20604;-94
2023/10/03 16:10:23;;;;;;;0.00;0.00;;;;;;;;;;6025504;29;20038;-93
2023/10/03 16:13:25;;;;;;;0.00;0.00;;;;;;;;;;6029813;29;20041;-96
2023/10/03 16:16:27;;;;;;;0.00;0.00;;;;;;;;;;6015095;29;20640;-96
2023/10/03 16:19:36;;;;;;;0.00;0.00;;;;;;;;;;6052247;29;20057;-96
2023/10/03 16:22:39;;;;;;;1999.90;999.90;;;;;;;;;;6039810;29;20054;-95
2023/10/03 16:25:41;;;;;;;4.43;0.60;;;;;;;;;;6021474;29;20074;-96
2023/10/03 16:28:43;;;;;;;2.60;0.80;;;;;;;;;;6026611;29;20048;-95
2023/10/03 16:31:45;;;;;;;5.05;0.90;;;;;;;;;;6027207;29;20121;-96
2023/10/03 16:34:47;;;;;;;2.47;0.50;;;;;;;;;;6029833;29;20048;-95
2023/10/03 16:37:50;;;;;;;0.43;0.20;;;;;;;;;;6026041;29;20420;-96
2023/10/03 16:40:52;;;;;;;1.08;0.60;;;;;;;;;;6030657;29;20093;-96
2023/10/03 16:43:54;;;;;;;2.42;0.73;;;;;;;;;;6027161;29;20102;-96
2023/10/03 16:46:57;;;;;;;1.85;0.73;;;;;;;;;;6028435;29;20050;-91
2023/10/03 16:50:00;;;;;;;4.22;0.50;;;;;;;;;;6023128;29;20045;-95
2023/10/03 16:53:02;;;;;;;4.80;0.98;;;;;;;;;;6016007;29;20159;-94
2023/10/03 16:56:05;;;;;;;3.75;0.63;;;;;;;;;;6036041;29;20046;-94
2023/10/03 16:59:09;;;;;;;3.42;0.70;;;;;;;;;;6044746;29;20042;-94
2023/10/03 17:02:11;;;;;;;4.65;0.60;;;;;;;;;;6035175;29;20034;-94
2023/10/03 17:05:15;;;;;;;1.13;0.57;;;;;;;;;;6022065;29;20366;-95
2023/10/03 17:08:17;;;;;;;0.93;0.52;;;;;;;;;;6024046;29;20515;-94
2023/10/03 17:11:19;;;;;;;7.50;1.08;;;;;;;;;;6027238;29;20629;-91
2023/10/03 17:14:21;;;;;;;0.95;0.55;;;;;;;;;;6031117;29;20049;-92
2023/10/03 17:17:23;;;;;;;1.63;0.70;;;;;;;;;;6032517;29;20540;-92
2023/10/03 17:20:25;;;;;;;1.52;0.60;;;;;;;;;;6050257;29;20171;-93
2023/10/03 17:23:27;;;;;;;1.25;0.73;;;;;;;;;;6030705;29;20048;-92
2023/10/03 17:26:29;;;;;;;6.82;0.65;;;;;;;;;;6024633;29;20079;-92
2023/10/03 17:29:32;;;;;;;6.05;0.63;;;;;;;;;;6050248;29;20048;-92
2023/10/03 17:32:34;;;;;;;0.98;0.65;;;;;;;;;;6031415;29;20057;-90
2023/10/03 17:35:35;;;;;;;1.00;0.40;;;;;;;;;;6032356;29;20048;-93
2023/10/03 17:38:37;;;;;;;6.25;1.10;;;;;;;;;;6033615;29;20076;-93
2023/10/03 17:41:39;;;;;;;4.20;1.17;;;;;;;;;;6037242;29;20057;-92
2023/10/03 17:44:42;;;;;;;0.30;0.30;;;;;;;;;;6019535;29;20050;-93
2023/10/03 17:47:45;;;;;;;1519.35;768.25;;;;;;;;;;6037116;29;20076;-92
2023/10/03 17:50:48;;;;;;;0.40;0.40;;;;;;;;;;6030573;29;20044;-93
2023/10/03 17:53:49;;;;;;;1567.05;763.00;;;;;;;;;;6026439;29;20049;-92
2023/10/03 17:56:51;;;;;;;2.95;0.30;;;;;;;;;;6027603;29;20374;-94
2023/10/03 17:59:54;;;;;;;319.50;157.88;;;;;;;;;;6035819;29;20152;-94
2023/10/03 18:03:02;;;;;;;36.05;34.20;;;;;;;;;;6046347;29;20053;-92
2023/10/03 18:06:04;;;;;;;3.10;3.00;;;;;;;;;;6027448;29;20049;-95
2023/10/03 18:09:06;;;;;;;3.67;3.58;;;;;;;;;;6032839;29;20049;-96
2023/10/03 18:12:10;;;;;;;3.13;3.03;;;;;;;;;;6034661;29;20511;-95
2023/10/03 18:15:12;;;;;;;3.17;3.08;;;;;;;;;;6034928;29;20727;-95
2023/10/03 18:18:15;;;;;;;3.28;3.17;;;;;;;;;;6034548;29;20053;-95
2023/10/03 18:21:17;;;;;;;2.83;2.72;;;;;;;;;;6035242;29;20073;-96
2023/10/03 18:24:20;;;;;;;3.33;3.22;;;;;;;;;;6019289;29;20049;-96